Time;durP1;ratioP1;P1;durP2;ratioP2;P2;SDS_P1;SDS_P2;PMS_P1;PMS_P2;Temp;Humidity;BMP_temperature;BMP_pressure;BME280_temperature;BME280_humidity;BME280_pressure;Samples;Min_cycle;Max_cycle;Signal;HPM_P1;HPM_P2
2023/01/30 00:01:37;;;;;;;4.43;3.87;;;;;;;;;;5090057;28;20453;-72
2023/01/30 00:04:04;;;;;;;8.20;3.97;;;;;;;;;;5091354;28;20874;-72
2023/01/30 00:06:31;;;;;;;5.30;4.43;;;;;;;;;;5094023;28;20475;-72
2023/01/30 00:09:00;;;;;;;7.63;4.63;;;;;;;;;;5094566;28;20526;-72
2023/01/30 00:11:28;;;;;;;4.73;3.10;;;;;;;;;;5094021;28;20453;-72
2023/01/30 00:13:56;;;;;;;6.90;6.13;;;;;;;;;;5094449;28;20457;-72
2023/01/30 00:16:23;;;;;;;5.03;4.53;;;;;;;;;;5091249;28;20483;-72
2023/01/30 00:18:50;;;;;;;11.63;4.60;;;;;;;;;;5093875;28;20445;-71
2023/01/30 00:21:17;;;;;;;2.93;2.70;;;;;;;;;;5102241;28;20463;-72
2023/01/30 00:23:45;;;;;;;4.40;3.00;;;;;;;;;;5099289;28;20449;-72
2023/01/30 00:26:13;;;;;;;5.50;3.07;;;;;;;;;;5090538;28;20452;-72
2023/01/30 00:28:41;;;;;;;7.27;3.47;;;;;;;;;;5093717;28;20453;-71
2023/01/30 00:31:09;;;;;;;2.23;1.83;;;;;;;;;;5083449;28;20456;-72
2023/01/30 00:33:36;;;;;;;7.07;4.13;;;;;;;;;;5093527;28;20448;-72
2023/01/30 00:36:03;;;;;;;10.33;4.57;;;;;;;;;;5094189;28;20487;-72
2023/01/30 00:38:30;;;;;;;4.87;2.83;;;;;;;;;;5093865;28;20522;-72
2023/01/30 00:40:58;;;;;;;7.00;4.43;;;;;;;;;;5084825;28;20449;-72
2023/01/30 00:48:58;;;;;;;4.57;4.17;;;;;;;;;;5089181;28;20427;-72
2023/01/30 00:51:25;;;;;;;5.17;3.93;;;;;;;;;;5092888;28;20935;-72
2023/01/30 00:53:52;;;;;;;5.83;3.57;;;;;;;;;;5093926;28;20449;-72
2023/01/30 00:56:20;;;;;;;5.73;2.43;;;;;;;;;;5093464;28;20479;-68
2023/01/30 00:58:48;;;;;;;5.70;3.73;;;;;;;;;;5093225;28;20448;-74
2023/01/30 01:01:15;;;;;;;4.10;2.83;;;;;;;;;;5093500;28;20452;-73
2023/01/30 01:03:42;;;;;;;4.37;2.70;;;;;;;;;;5093083;28;20453;-72
2023/01/30 01:06:09;;;;;;;5.90;2.10;;;;;;;;;;5093171;28;20755;-72
2023/01/30 01:08:37;;;;;;;7.37;4.17;;;;;;;;;;5087396;28;20444;-71
2023/01/30 01:11:04;;;;;;;6.30;5.23;;;;;;;;;;5091312;28;20456;-72
2023/01/30 01:13:31;;;;;;;5.03;3.50;;;;;;;;;;5083634;28;20475;-72
2023/01/30 01:15:59;;;;;;;7.87;3.40;;;;;;;;;;5092980;28;20488;-73
2023/01/30 01:18:26;;;;;;;6.53;5.97;;;2.70;9.60;;;;;;5093000;28;20453;-72
2023/01/30 01:20:53;;;;;;;3.47;2.03;;;-0.70;99.90;;;;;;5092901;28;20810;-72
2023/01/30 01:23:20;;;;;;;4.30;3.30;;;-0.80;99.90;;;;;;5090354;28;20445;-68
2023/01/30 01:25:46;;;;;;;6.70;3.17;;;-0.80;99.90;;;;;;5090975;28;20470;-72
2023/01/30 01:28:13;;;;;;;4.00;3.60;;;-0.70;99.90;;;;;;5093527;28;20819;-72
2023/01/30 01:30:40;;;;;;;5.37;2.57;;;-0.50;99.90;;;;;;5092426;28;20456;-72
2023/01/30 01:33:08;;;;;;;7.30;4.63;;;-0.60;1.00;;;;;;5093225;28;20458;-72
2023/01/30 01:35:39;;;;;;;4.60;4.20;;;-0.70;1.00;;;;;;5092518;28;20448;-72
2023/01/30 01:38:06;;;;;;;9.20;3.57;;;-0.70;18.60;;;;;;5093411;28;20453;-72
2023/01/30 01:43:18;;;;;;;4.50;3.50;;;-0.50;1.00;;;;;;5091579;28;20425;-72
2023/01/30 01:45:47;;;;;;;8.80;5.03;;;-0.40;1.00;;;;;;5093460;28;20484;-72
2023/01/30 01:48:20;;;;;;;9.03;3.80;;;-0.60;1.00;;;;;;5092660;28;20451;-72
2023/01/30 01:50:51;;;;;;;6.00;3.70;;;-0.70;1.00;;;;;;5092725;28;20817;-72
2023/01/30 01:53:22;;;;;;;6.30;4.13;;;-0.70;1.00;;;;;;5092808;28;20439;-73
2023/01/30 01:55:52;;;;;;;4.40;3.70;;;-0.80;49.10;;;;;;5092891;28;20988;-72
2023/01/30 01:58:24;;;;;;;4.80;3.20;;;-0.60;1.00;;;;;;5092871;28;20457;-70
2023/01/30 02:00:51;;;;;;;4.40;3.97;;;-0.80;99.90;;;;;;5081291;28;20443;-70
2023/01/30 02:03:23;;;;;;;5.70;3.93;;;-0.90;13.00;;;;;;5092711;28;20453;-71
2023/01/30 02:05:53;;;;;;;2.67;2.30;;;-0.70;1.00;;;;;;5092498;28;20789;-69
2023/01/30 02:08:24;;;;;;;5.07;4.03;;;-1.00;1.00;;;;;;5092228;28;20451;-66
2023/01/30 02:10:56;;;;;;;4.03;2.90;;;-1.10;99.90;;;;;;5091752;28;20940;-70
2023/01/30 02:13:23;;;;;;;3.90;2.03;;;-1.30;99.90;;;;;;5092053;28;20447;-70
2023/01/30 02:15:51;;;;;;;5.63;3.23;;;-1.00;99.90;;;;;;5092245;28;20507;-70
2023/01/30 02:18:19;;;;;;;4.87;3.90;;;-1.00;1.00;;;;;;5091486;28;20948;-71
2023/01/30 02:21:02;;;;;;;3.90;3.10;;;-1.00;99.90;;;;;;5091550;28;20445;-71
2023/01/30 02:24:14;;;;;;;5.47;3.93;;;-1.00;99.90;;;;;;5091519;28;20445;-72
2023/01/30 02:27:02;;;;;;;10.03;3.90;;;-0.80;95.50;;;;;;5072403;28;20956;-71
2023/01/30 02:30:04;;;;;;;5.70;3.63;;;-0.80;1.00;;;;;;5082670;28;20441;-71
2023/01/30 02:32:38;;;;;;;6.23;4.00;;;-0.90;90.40;;;;;;5091126;28;20502;-71
2023/01/30 02:35:16;;;;;;;5.73;4.13;;;-1.20;87.40;;;;;;5084702;28;20438;-71
2023/01/30 02:37:51;;;;;;;4.17;3.80;;;-1.10;99.90;;;;;;5091446;28;20473;-71
2023/01/30 02:40:33;;;;;;;7.03;3.83;;;-1.30;99.90;;;;;;5091492;28;20452;-71
2023/01/30 02:43:08;;;;;;;4.03;3.33;;;-1.40;1.00;;;;;;5092269;28;20947;-71
2023/01/30 02:45:44;;;;;;;5.57;2.53;;;-1.40;1.00;;;;;;5077566;28;20477;-71
2023/01/30 02:48:16;;;;;;;6.43;5.43;;;-1.20;99.90;;;;;;5091230;28;20449;-71
2023/01/30 02:50:47;;;;;;;5.20;3.67;;;-1.00;99.90;;;;;;5090505;28;20921;-71
2023/01/30 02:53:14;;;;;;;7.70;2.30;;;-0.90;99.90;;;;;;5091893;28;20452;-71
2023/01/30 02:55:42;;;;;;;5.93;5.13;;;-1.10;99.90;;;;;;5090970;28;20445;-71
2023/01/30 02:58:10;;;;;;;3.47;2.50;;;-1.00;99.90;;;;;;5091354;28;20955;-72
2023/01/30 03:00:58;;;;;;;6.90;2.77;;;-1.10;99.90;;;;;;5090708;28;20456;-71
2023/01/30 03:03:41;;;;;;;3.97;3.57;;;-1.30;99.90;;;;;;5090956;28;20467;-71
2023/01/30 03:06:24;;;;;;;3.90;2.87;;;-1.40;99.90;;;;;;5091432;28;20447;-71
2023/01/30 03:09:04;;;;;;;6.97;3.77;;;-1.50;1.00;;;;;;5091071;28;20448;-71
2023/01/30 03:11:38;;;;;;;3.80;3.50;;;-1.10;1.00;;;;;;5090562;28;20459;-71
2023/01/30 03:14:13;;;;;;;4.80;2.90;;;-0.80;99.90;;;;;;5091441;28;20444;-71
2023/01/30 03:16:41;;;;;;;5.67;4.33;;;-0.80;99.90;;;;;;5090386;28;20998;-71
2023/01/30 03:19:12;;;;;;;9.20;4.33;;;-0.60;1.00;;;;;;5090705;28;20457;-71
2023/01/30 03:21:43;;;;;;;6.00;4.60;;;-0.60;1.00;;;;;;5090602;28;20684;-70
2023/01/30 03:24:10;;;;;;;5.90;3.07;;;-0.60;1.00;;;;;;5084053;28;20989;-70
2023/01/30 03:26:43;;;;;;;6.20;4.83;;;-0.60;1.00;;;;;;5090780;28;20462;-71
2023/01/30 03:29:10;;;;;;;4.87;3.87;;;-0.50;1.00;;;;;;5090493;28;20791;-71
2023/01/30 03:31:36;;;;;;;4.37;3.97;;;-0.40;99.90;;;;;;5090121;28;20955;-71
2023/01/30 03:34:03;;;;;;;5.73;4.90;;;;;;;;;;5090798;28;20528;-70
2023/01/30 03:36:32;;;;;;;3.43;2.63;;;;;;;;;;5090376;28;20485;-71
2023/01/30 03:38:59;;;;;;;5.90;3.93;;;;;;;;;;5090480;28;20452;-71
2023/01/30 03:41:26;;;;;;;9.17;4.37;;;;;;;;;;5090515;28;20448;-71
2023/01/30 03:43:53;;;;;;;12.20;3.73;;;;;;;;;;5090883;28;20800;-71
2023/01/30 03:46:20;;;;;;;4.33;2.40;;;;;;;;;;5090525;28;20449;-68
2023/01/30 03:48:47;;;;;;;3.77;3.00;;;;;;;;;;5090570;28;20451;-71
2023/01/30 03:51:15;;;;;;;5.30;3.03;;;;;;;;;;5091030;28;20452;-71
2023/01/30 03:53:43;;;;;;;5.10;4.70;;;;;;;;;;5089864;28;20448;-71
2023/01/30 03:56:10;;;;;;;4.90;3.63;;;-0.40;99.90;;;;;;5090564;28;20459;-71
2023/01/30 03:58:36;;;;;;;6.80;3.60;;;-0.10;99.90;;;;;;5089677;28;20457;-71
2023/01/30 04:01:03;;;;;;;9.67;4.37;;;0.00;99.90;;;;;;5090678;28;20451;-70
2023/01/30 04:03:30;;;;;;;4.57;3.83;;;0.10;9.30;;;;;;5089973;28;20454;-71
2023/01/30 04:05:57;;;;;;;5.23;3.70;;;0.20;1.00;;;;;;5090590;28;20457;-71
2023/01/30 04:08:24;;;;;;;6.93;3.30;;;0.20;99.90;;;;;;5089720;28;20445;-71
2023/01/30 04:10:52;;;;;;;9.70;4.20;;;0.20;1.00;;;;;;5090503;28;20459;-73
2023/01/30 04:13:19;;;;;;;9.10;2.73;;;0.30;1.00;;;;;;5090694;28;20473;-74
2023/01/30 04:15:46;;;;;;;2.13;1.93;;;0.30;1.00;;;;;;5090472;28;20437;-72
2023/01/30 04:18:12;;;;;;;3.07;1.67;;;0.30;1.00;;;;;;5090094;28;20480;-72
2023/01/30 04:20:39;;;;;;;5.47;4.30;;;0.20;1.00;;;;;;5089198;28;20709;-71
2023/01/30 04:23:06;;;;;;;4.57;3.50;;;0.40;1.00;;;;;;5090601;28;20465;-72
2023/01/30 04:25:33;;;;;;;4.03;3.70;;;0.50;99.90;;;;;;5090189;28;20440;-70
2023/01/30 04:28:01;;;;;;;5.87;3.50;;;0.50;49.40;;;;;;5090628;28;20458;-73
2023/01/30 04:30:28;;;;;;;4.43;3.53;;;0.50;99.90;;;;;;5089164;28;20452;-73
2023/01/30 04:32:54;;;;;;;4.30;3.63;;;0.50;1.00;;;;;;5090298;28;20457;-73
2023/01/30 04:35:21;;;;;;;5.70;3.00;;;0.50;1.00;;;;;;5089432;28;20445;-70
2023/01/30 04:37:48;;;;;;;4.63;2.80;;;0.60;1.00;;;;;;5090052;28;20495;-72
2023/01/30 04:40:15;;;;;;;3.97;3.27;;;0.60;99.90;;;;;;5089932;28;20807;-71
2023/01/30 04:42:42;;;;;;;2.97;2.47;;;0.70;99.90;;;;;;5089282;28;20531;-72
2023/01/30 04:45:11;;;;;;;4.30;2.93;;;0.80;1.00;;;;;;5089847;28;20477;-71
2023/01/30 04:47:37;;;;;;;5.50;3.20;;;0.90;1.00;;;;;;5083055;28;20451;-71
2023/01/30 04:50:05;;;;;;;4.67;2.57;;;0.90;1.00;;;;;;5090015;28;20469;-71
2023/01/30 04:52:32;;;;;;;3.93;2.83;;;0.90;1.00;;;;;;5092391;28;20454;-70
2023/01/30 04:54:58;;;;;;;4.60;2.73;;;0.90;1.00;;;;;;5093264;28;20460;-73
2023/01/30 04:57:25;;;;;;;9.53;3.07;;;1.00;99.90;;;;;;5093245;28;20788;-71
2023/01/30 04:59:52;;;;;;;5.33;3.27;;;0.90;1.00;;;;;;5084513;28;20451;-71
2023/01/30 05:02:20;;;;;;;7.37;4.10;;;1.00;99.90;;;;;;5093856;28;20458;-72
2023/01/30 05:04:50;;;;;;;7.13;2.57;;;0.90;1.00;;;;;;5092978;28;20454;-70
2023/01/30 05:07:16;;;;;;;7.90;3.20;;;1.00;99.90;;;;;;5093219;28;20919;-73
2023/01/30 05:09:43;;;;;;;3.23;2.63;;;0.90;1.00;;;;;;5091933;28;20447;-71
2023/01/30 05:12:10;;;;;;;4.43;2.90;;;0.90;1.00;;;;;;5091381;28;20457;-71
2023/01/30 05:14:40;;;;;;;6.10;3.37;;;1.00;99.90;;;;;;5092475;28;20927;-71
2023/01/30 05:17:07;;;;;;;4.37;2.53;;;1.10;99.90;;;;;;5092561;28;20487;-72
2023/01/30 05:19:35;;;;;;;8.13;3.83;;;1.10;99.90;;;;;;5091086;28;20454;-71
2023/01/30 05:22:01;;;;;;;8.70;4.10;;;1.00;99.90;;;;;;5093412;28;20450;-70
2023/01/30 05:24:28;;;;;;;5.97;3.73;;;1.00;99.90;;;;;;5079469;28;20446;-71
2023/01/30 05:26:55;;;;;;;6.43;4.00;;;1.00;99.90;;;;;;5093211;28;20458;-72
2023/01/30 05:29:22;;;;;;;3.83;2.50;;;1.00;99.90;;;;;;5092053;28;20930;-71
2023/01/30 05:31:49;;;;;;;5.10;3.20;;;1.00;99.90;;;;;;5093256;28;20457;-71
2023/01/30 05:34:15;;;;;;;5.03;3.53;;;1.00;99.90;;;;;;5092926;28;20945;-71
2023/01/30 05:36:43;;;;;;;4.33;3.43;;;1.10;99.90;;;;;;5092169;28;20447;-71
2023/01/30 05:39:10;;;;;;;5.43;3.00;;;1.00;99.90;;;;;;5092498;28;20451;-71
2023/01/30 05:41:37;;;;;;;2.77;2.20;;;1.10;99.90;;;;;;5092028;28;20478;-71
2023/01/30 05:44:04;;;;;;;2.20;1.33;;;1.10;99.90;;;;;;5092303;28;20479;-72
2023/01/30 05:46:31;;;;;;;4.97;2.77;;;1.00;99.90;;;;;;5092350;28;20804;-72
2023/01/30 05:48:58;;;;;;;4.40;3.33;;;1.10;99.90;;;;;;5083966;28;20445;-71
2023/01/30 05:51:26;;;;;;;3.83;2.67;;;1.10;99.90;;;;;;5091422;28;20457;-71
2023/01/30 05:53:54;;;;;;;4.87;2.43;;;1.10;99.90;;;;;;5092659;28;20511;-71
2023/01/30 05:56:21;;;;;;;4.33;2.27;;;1.10;99.90;;;;;;5092153;28;20776;-73
2023/01/30 05:58:51;;;;;;;3.93;1.93;;;1.10;99.90;;;;;;5092374;28;20492;-73
2023/01/30 06:01:17;;;;;;;4.70;3.23;;;1.10;99.90;;;;;;5091378;28;20448;-72
2023/01/30 06:03:44;;;;;;;7.70;4.27;;;1.10;99.90;;;;;;5091673;28;20805;-71
2023/01/30 06:06:12;;;;;;;4.20;2.77;;;1.10;99.90;;;;;;5092220;28;20453;-73
2023/01/30 06:08:39;;;;;;;4.53;2.20;;;1.10;99.90;;;;;;5091432;28;20458;-71
2023/01/30 06:11:09;;;;;;;3.93;2.17;;;1.10;99.90;;;;;;5090975;28;20466;-72
2023/01/30 06:13:36;;;;;;;2.93;2.00;;;1.00;99.90;;;;;;5083300;28;20451;-71
2023/01/30 06:16:03;;;;;;;7.10;4.67;;;1.10;99.90;;;;;;5086939;28;20930;-72
2023/01/30 06:18:30;;;;;;;4.47;2.87;;;1.10;99.90;;;;;;5091073;28;20483;-73
2023/01/30 06:20:57;;;;;;;4.07;2.20;;;1.10;99.90;;;;;;5092366;28;20451;-72
2023/01/30 06:23:24;;;;;;;5.57;3.97;;;1.00;99.90;;;;;;5091852;28;20820;-71
2023/01/30 06:25:52;;;;;;;5.00;3.47;;;1.00;99.90;;;;;;5092413;28;20816;-71
2023/01/30 06:28:21;;;;;;;3.00;2.70;;;1.10;99.90;;;;;;5082410;28;20454;-75
2023/01/30 06:30:48;;;;;;;3.67;2.70;;;1.10;99.90;;;;;;5090850;28;20448;-74
2023/01/30 06:33:15;;;;;;;3.97;2.37;;;1.10;99.90;;;;;;5092708;28;20452;-74
2023/01/30 06:35:43;;;;;;;6.87;4.43;;;1.20;99.90;;;;;;5091230;28;20573;-71
2023/01/30 06:38:12;;;;;;;4.40;2.47;;;1.20;99.90;;;;;;5091514;28;20491;-71
2023/01/30 06:40:40;;;;;;;3.40;2.33;;;1.20;99.90;;;;;;5078229;28;20856;-72
2023/01/30 06:43:07;;;;;;;4.67;3.17;;;1.10;99.90;;;;;;5091655;28;20896;-71
2023/01/30 06:45:35;;;;;;;5.23;2.27;;;1.10;99.90;;;;;;5091582;28;20477;-73
2023/01/30 06:48:03;;;;;;;4.60;3.23;;;1.20;99.90;;;;;;5092474;28;20473;-71
2023/01/30 06:50:30;;;;;;;3.60;2.43;;;1.20;99.90;;;;;;5090156;28;20451;-72
2023/01/30 06:52:58;;;;;;;6.10;3.97;;;1.20;99.90;;;;;;5091559;28;20474;-71
2023/01/30 06:55:27;;;;;;;8.33;3.63;;;1.30;99.90;;;;;;5091219;28;20500;-74
2023/01/30 06:58:01;;;;;;;4.87;3.10;;;;;;;;;;5091411;28;20491;-72
2023/01/30 07:00:28;;;;;;;4.43;2.77;;;;;;;;;;5090905;28;20811;-74
2023/01/30 07:02:57;;;;;;;6.40;4.33;;;;;;;;;;5091581;28;20448;-72
2023/01/30 07:05:24;;;;;;;4.40;2.77;;;;;;;;;;5090998;28;20827;-73
2023/01/30 07:07:51;;;;;;;4.70;2.70;;;;;;;;;;5091564;28;20455;-72
2023/01/30 07:10:18;;;;;;;11.60;3.03;;;;;;;;;;5091274;28;20443;-73
2023/01/30 07:12:45;;;;;;;3.97;3.20;;;;;;;;;;5091310;28;20464;-73
2023/01/30 07:15:13;;;;;;;5.47;3.73;;;;;;;;;;5091670;28;20841;-73
2023/01/30 07:17:41;;;;;;;3.23;2.43;;;;;;;;;;5090556;28;20939;-74
2023/01/30 07:20:11;;;;;;;4.50;2.30;;;;;;;;;;5090996;28;20447;-73
2023/01/30 07:22:38;;;;;;;4.50;3.30;;;;;;;;;;5090586;28;20494;-73
2023/01/30 07:25:05;;;;;;;8.43;3.17;;;;;;;;;;5091221;28;20954;-73
2023/01/30 07:27:32;;;;;;;5.80;4.47;;;;;;;;;;5090541;28;20451;-72
2023/01/30 07:30:00;;;;;;;5.57;2.43;;;;;;;;;;5090938;28;20467;-73
2023/01/30 07:32:27;;;;;;;5.40;3.60;;;;;;;;;;5090381;28;20447;-73
2023/01/30 07:34:54;;;;;;;19.23;3.37;;;;;;;;;;5091012;28;20455;-74
2023/01/30 07:37:23;;;;;;;6.23;2.67;;;;;;;;;;5090513;28;20453;-73
2023/01/30 07:39:50;;;;;;;6.27;2.87;;;;;;;;;;5091216;28;20448;-70
2023/01/30 07:42:17;;;;;;;6.37;2.70;;;;;;;;;;5090454;28;20959;-73
2023/01/30 07:44:44;;;;;;;4.00;2.80;;;;;;;;;;5090200;28;20476;-72
2023/01/30 07:47:11;;;;;;;9.10;4.07;;;;;;;;;;5077441;28;20452;-72
2023/01/30 07:49:38;;;;;;;3.07;1.67;;;;;;;;;;5090288;28;20820;-73
2023/01/30 07:52:05;;;;;;;6.90;2.70;;;;;;;;;;5090598;28;20448;-73
2023/01/30 07:54:34;;;;;;;3.47;2.10;;;;;;;;;;5090076;28;20927;-73
2023/01/30 07:57:01;;;;;;;4.60;2.50;;;;;;;;;;5091145;28;20450;-74
2023/01/30 07:59:28;;;;;;;2.40;2.20;;;;;;;;;;5089923;28;20487;-72
2023/01/30 08:01:55;;;;;;;4.53;2.90;;;;;;;;;;5090359;28;20448;-72
2023/01/30 08:04:22;;;;;;;6.67;2.87;;;;;;;;;;5089943;28;20471;-73
2023/01/30 08:06:50;;;;;;;7.80;3.70;;;;;;;;;;5091034;28;20798;-73
2023/01/30 08:09:17;;;;;;;3.13;2.83;;;;;;;;;;5090989;28;20472;-74
2023/01/30 08:11:45;;;;;;;3.17;2.40;;;;;;;;;;5089888;28;20456;-73
2023/01/30 08:14:12;;;;;;;4.77;2.47;;;;;;;;;;5090885;28;20471;-73
2023/01/30 08:16:39;;;;;;;3.60;2.73;;;;;;;;;;5090276;28;21021;-73
2023/01/30 08:19:07;;;;;;;7.17;3.57;;;;;;;;;;5090388;28;21037;-73
2023/01/30 08:21:34;;;;;;;3.40;1.77;;;;;;;;;;5089708;28;20448;-74
2023/01/30 08:24:01;;;;;;;6.03;2.50;;;;;;;;;;5090754;28;20463;-73
2023/01/30 08:26:28;;;;;;;2.60;1.30;;;;;;;;;;5093181;28;20448;-73
2023/01/30 08:28:57;;;;;;;4.53;2.70;;;;;;;;;;5094156;28;20456;-73
2023/01/30 08:31:24;;;;;;;2.90;1.60;;;;;;;;;;5093637;28;20456;-73
2023/01/30 08:33:51;;;;;;;5.87;2.90;;;;;;;;;;5094436;28;20445;-72
2023/01/30 08:36:18;;;;;;;2.93;1.97;;;;;;;;;;5094097;28;20451;-74
2023/01/30 08:38:45;;;;;;;6.60;3.30;;;;;;;;;;5094258;28;20512;-74
2023/01/30 08:41:12;;;;;;;4.40;2.93;;;;;;;;;;5093611;28;20467;-73
2023/01/30 08:43:39;;;;;;;8.10;2.20;;;;;;;;;;5093475;28;20471;-73
2023/01/30 08:46:08;;;;;;;4.10;2.40;;;;;;;;;;5094263;28;20447;-73
2023/01/30 08:48:37;;;;;;;3.70;3.40;;;;;;;;;;5093554;28;20780;-73
2023/01/30 08:51:04;;;;;;;4.30;2.60;;;;;;;;;;5093815;28;20541;-72
2023/01/30 08:53:31;;;;;;;4.73;2.93;;;;;;;;;;5093625;28;20808;-73
2023/01/30 08:55:58;;;;;;;3.07;2.53;;;;;;;;;;5094276;28;20448;-73
2023/01/30 08:58:25;;;;;;;5.03;2.40;;;;;;;;;;5092961;28;20492;-73
2023/01/30 09:00:52;;;;;;;3.27;1.80;;;;;;;;;;5093541;28;20800;-73
2023/01/30 09:03:21;;;;;;;3.83;1.50;;;;;;;;;;5093981;28;20449;-73
2023/01/30 09:05:48;;;;;;;2.67;2.43;;;;;;;;;;5093975;28;20807;-73
2023/01/30 09:08:15;;;;;;;4.53;2.23;;;;;;;;;;5093558;28;20970;-73
2023/01/30 09:10:42;;;;;;;3.67;2.13;;;;;;;;;;5092816;28;20811;-73
2023/01/30 09:13:10;;;;;;;4.00;2.87;;;;;;;;;;5080355;28;20463;-73
2023/01/30 09:15:37;;;;;;;3.20;2.53;;;;;;;;;;5093058;28;20451;-71
2023/01/30 09:18:04;;;;;;;4.43;1.93;;;;;;;;;;5093294;28;20487;-72
2023/01/30 09:20:33;;;;;;;5.80;3.30;;;;;;;;;;5092527;28;20445;-73
2023/01/30 09:23:00;;;;;;;3.83;2.07;;;;;;;;;;5093454;28;20441;-73
2023/01/30 09:25:27;;;;;;;4.70;2.70;;;;;;;;;;5092978;28;20451;-73
2023/01/30 09:27:54;;;;;;;4.57;2.70;;;;;;;;;;5093255;28;20461;-73
2023/01/30 09:30:21;;;;;;;5.70;2.77;;;;;;;;;;5092287;28;20459;-74
2023/01/30 09:32:49;;;;;;;4.97;2.30;;;;;;;;;;5093278;28;20936;-73
2023/01/30 09:35:16;;;;;;;3.23;1.20;;;;;;;;;;5093619;28;20449;-73
2023/01/30 09:37:51;;;;;;;3.27;2.03;;;1.30;99.90;;;;;;5092125;28;20806;-73
2023/01/30 09:40:21;;;;;;;2.17;1.63;;;;;;;;;;5092641;28;20469;-73
2023/01/30 09:43:10;;;;;;;2.60;1.67;;;;;;;;;;5093524;28;20461;-72
2023/01/30 09:45:40;;;;;;;2.87;2.10;;;;;;;;;;5079095;28;20541;-72
2023/01/30 09:48:13;;;;;;;2.50;1.60;;;;;;;;;;5092806;28;20958;-73
2023/01/30 09:50:48;;;;;;;2.33;1.97;;;;;;;;;;5091808;28;21185;-72
2023/01/30 09:53:19;;;;;;;2.73;1.80;;;;;;;;;;5092927;28;20445;-73
2023/01/30 09:55:47;;;;;;;5.23;1.90;;;;;;;;;;5093256;28;20469;-73
2023/01/30 09:58:17;;;;;;;2.43;1.30;;;;;;;;;;5092963;28;20451;-72
2023/01/30 10:00:45;;;;;;;3.43;1.37;;;;;;;;;;5092115;28;20439;-73
2023/01/30 10:03:14;;;;;;;1.60;1.50;;;;;;;;;;5092395;28;20449;-73
2023/01/30 10:05:44;;;;;;;2.73;2.03;;;;;;;;;;5092061;28;20458;-73
2023/01/30 10:08:29;;;;;;;2.37;1.33;;;;;;;;;;5092733;28;20448;-73
2023/01/30 10:11:00;;;;;;;3.13;2.33;;;;;;;;;;5078854;28;20450;-72
2023/01/30 10:13:34;;;;;;;2.83;2.00;;;;;;;;;;5091952;28;20444;-72
2023/01/30 10:16:05;;;;;;;4.80;2.70;;;;;;;;;;5092786;28;20442;-73
2023/01/30 10:18:44;;;;;;;3.43;1.53;;;;;;;;;;5091965;28;20476;-72
2023/01/30 10:21:17;;;;;;;2.77;1.10;;;;;;;;;;5092040;28;20450;-72
2023/01/30 10:23:55;;;;;;;3.17;1.63;;;;;;;;;;5092085;28;20447;-72
2023/01/30 10:26:25;;;;;;;2.17;1.20;;;;;;;;;;5091947;28;20457;-72
2023/01/30 10:28:55;;;;;;;3.80;1.70;;;;;;;;;;5092347;28;20462;-72
2023/01/30 10:31:25;;;;;;;2.83;1.67;;;;;;;;;;5091554;28;20823;-72
2023/01/30 10:33:57;;;;;;;2.13;1.10;;;;;;;;;;5092107;28;20544;-72
2023/01/30 10:36:25;;;;;;;3.50;1.70;;;;;;;;;;5091641;28;20438;-72
2023/01/30 10:38:53;;;;;;;1.13;0.83;;;;;;;;;;5091844;28;20855;-72
2023/01/30 10:41:25;;;;;;;3.43;2.00;;;;;;;;;;5091317;28;20453;-69
2023/01/30 10:43:58;;;;;;;1.43;0.90;;;;;;;;;;5091916;28;20467;-72
2023/01/30 10:46:35;;;;;;;1.83;0.80;;;;;;;;;;5091388;28;20454;-72
2023/01/30 10:49:03;;;;;;;2.00;1.17;;;;;;;;;;5091420;28;20444;-72
2023/01/30 10:51:41;;;;;;;1.37;1.07;;;;;;;;;;5090812;28;20468;-72
2023/01/30 10:54:12;;;;;;;1.27;0.90;;;;;;;;;;5091931;28;20451;-72
2023/01/30 10:56:43;;;;;;;1.87;1.40;;;;;;;;;;5090954;28;20441;-72
2023/01/30 10:59:21;;;;;;;2.00;1.23;;;;;;;;;;5091725;28;20928;-73
2023/01/30 11:01:51;;;;;;;1.43;0.67;;;;;;;;;;5078396;28;20450;-73
2023/01/30 11:04:24;;;;;;;2.63;1.20;;;;;;;;;;5091870;28;20792;-72
2023/01/30 11:06:52;;;;;;;1.90;1.10;;;;;;;;;;5091557;28;20448;-72
2023/01/30 11:09:19;;;;;;;1.07;1.00;;;;;;;;;;5091743;28;20827;-72
2023/01/30 11:11:49;;;;;;;4.80;1.33;;;;;;;;;;5091393;28;20449;-72
2023/01/30 11:14:18;;;;;;;1.57;1.43;;;;;;;;;;5091631;28;20540;-72
2023/01/30 11:16:47;;;;;;;1.53;1.27;;;;;;;;;;5091336;28;20451;-72
2023/01/30 11:19:15;;;;;;;2.90;1.30;;;;;;;;;;5090965;28;20494;-72
2023/01/30 11:21:43;;;;;;;1.00;0.73;;;;;;;;;;5090115;28;20446;-72
2023/01/30 11:24:15;;;;;;;1.70;1.00;;;;;;;;;;5091438;28;20456;-73
2023/01/30 11:26:42;;;;;;;3.80;2.13;;;;;;;;;;5091047;28;20447;-73
2023/01/30 11:29:24;;;;;;;2.03;1.20;;;;;;;;;;5091257;28;20465;-72
2023/01/30 11:31:52;;;;;;;2.33;1.63;;;;;;;;;;5090607;28;20448;-72
2023/01/30 11:34:21;;;;;;;1.40;1.17;;;;;;;;;;5091515;28;20456;-73
2023/01/30 11:36:48;;;;;;;2.60;1.87;;;;;;;;;;5091159;28;20467;-73
2023/01/30 11:39:21;;;;;;;2.50;1.53;;;;;;;;;;5091288;28;20483;-73
2023/01/30 11:41:57;;;;;;;3.20;1.43;;;;;;;;;;5090631;28;20462;-72
2023/01/30 11:44:27;;;;;;;7.50;1.63;;;;;;;;;;5090654;28;20492;-72
2023/01/30 11:46:54;;;;;;;4.57;1.70;;;;;;;;;;5091080;28;20442;-73
2023/01/30 11:49:23;;;;;;;2.30;1.37;;;;;;;;;;5090603;28;20455;-72
2023/01/30 11:51:53;;;;;;;1.93;1.30;;;;;;;;;;5090559;28;20456;-71
2023/01/30 11:54:21;;;;;;;4.90;1.90;;;;;;;;;;5090500;28;21000;-68
2023/01/30 11:56:50;;;;;;;1.93;1.13;;;;;;;;;;5091059;28;20444;-72
2023/01/30 11:59:24;;;;;;;2.07;1.53;;;;;;;;;;5092189;28;20485;-72
2023/01/30 12:01:53;;;;;;;2.37;1.77;;;;;;;;;;5081366;28;20448;-72
2023/01/30 12:04:20;;;;;;;4.07;2.50;;;;;;;;;;5094604;28;20448;-68
2023/01/30 12:07:04;;;;;;;1.97;1.60;;;;;;;;;;5095265;28;20527;-72
2023/01/30 12:09:33;;;;;;;3.13;2.17;;;;;;;;;;5094528;28;20444;-72
2023/01/30 12:12:00;;;;;;;2.40;1.13;;;;;;;;;;5094668;28;20461;-72
2023/01/30 12:14:35;;;;;;;1.50;1.10;;;;;;;;;;5094277;28;20879;-72
2023/01/30 12:17:08;;;;;;;1.80;1.70;;;;;;;;;;5094669;28;20445;-72
2023/01/30 12:19:40;;;;;;;2.10;1.10;;;;;;;;;;5093946;28;20476;-72
2023/01/30 12:22:11;;;;;;;3.63;1.63;;;;;;;;;;5094808;28;20441;-71
2023/01/30 12:24:40;;;;;;;4.53;1.83;;;;;;;;;;5094505;28;20460;-71
2023/01/30 12:27:12;;;;;;;1.90;1.63;;;;;;;;;;5094560;28;20452;-72
2023/01/30 12:29:45;;;;;;;2.83;1.57;;;;;;;;;;5094277;28;20833;-71
2023/01/30 12:32:15;;;;;;;1.50;1.33;;;;;;;;;;5094256;28;20916;-72
2023/01/30 12:34:44;;;;;;;3.00;2.10;;;;;;;;;;5094144;28;20456;-72
2023/01/30 12:37:19;;;;;;;1.47;1.37;;;;;;;;;;5094266;28;20507;-71
2023/01/30 12:39:54;;;;;;;2.13;1.23;;;;;;;;;;5094025;28;20472;-71
2023/01/30 12:42:30;;;;;;;1.40;1.10;;;;;;;;;;5080640;28;20467;-70
2023/01/30 12:45:02;;;;;;;3.03;1.90;;;;;;;;;;5094148;28;20478;-71
2023/01/30 12:47:39;;;;;;;3.37;1.53;;;;;;;;;;5093824;28;20440;-71
2023/01/30 12:50:19;;;;;;;3.80;2.57;;;;;;;;;;5093939;28;20798;-71
2023/01/30 12:53:03;;;;;;;2.93;1.90;;;;;;;;;;5094437;28;20539;-69
2023/01/30 12:55:37;;;;;;;2.33;1.40;;;;;;;;;;5081874;28;20451;-69
2023/01/30 12:58:07;;;;;;;4.33;1.97;;;;;;;;;;5089284;28;20445;-70
2023/01/30 13:00:40;;;;;;;1.80;1.30;;;;;;;;;;5094297;28;20480;-70
2023/01/30 13:03:25;;;;;;;1.17;1.07;;;;;;;;;;5093433;28;20457;-70
2023/01/30 13:05:54;;;;;;;2.60;2.27;;;;;;;;;;5093344;28;20541;-70
2023/01/30 13:08:25;;;;;;;3.60;2.10;;;;;;;;;;5092454;28;20831;-70
2023/01/30 13:10:59;;;;;;;2.03;1.53;;;;;;;;;;5088283;28;20454;-70
2023/01/30 13:13:30;;;;;;;2.67;1.37;;;;;;;;;;5082429;28;20441;-70
2023/01/30 13:16:02;;;;;;;5.17;3.30;;;;;;;;;;5092341;28;20452;-70
2023/01/30 13:18:33;;;;;;;5.30;1.80;;;;;;;;;;5092245;28;20434;-70
2023/01/30 13:21:05;;;;;;;3.80;2.60;;;;;;;;;;5088576;28;20465;-70
2023/01/30 13:23:36;;;;;;;1.47;1.37;;;;;;;;;;5091293;28;20815;-72
2023/01/30 13:26:05;;;;;;;4.97;2.00;;;;;;;;;;5092558;28;20450;-69
2023/01/30 13:28:35;;;;;;;3.33;1.60;;;;;;;;;;5085587;28;20452;-70
2023/01/30 13:31:05;;;;;;;3.80;2.40;;;;;;;;;;5092212;28;20813;-70
2023/01/30 13:33:35;;;;;;;3.20;2.23;;;;;;;;;;5086813;28;20442;-71
2023/01/30 13:36:11;;;;;;;3.33;1.87;;;;;;;;;;5093377;28;20451;-70
2023/01/30 13:38:41;;;;;;;3.03;2.37;;;;;;;;;;5086973;28;20820;-70
2023/01/30 13:41:10;;;;;;;8.63;2.10;;;;;;;;;;5089760;28;20488;-70
2023/01/30 13:43:39;;;;;;;2.90;1.53;;;;;;;;;;5089777;28;20463;-70
2023/01/30 13:46:08;;;;;;;6.03;1.90;;;;;;;;;;5090669;28;20441;-70
2023/01/30 13:48:43;;;;;;;2.40;1.60;;;;;;;;;;5089568;28;20458;-70
2023/01/30 13:51:20;;;;;;;2.13;1.60;;;;;;;;;;5089416;28;20462;-70
2023/01/30 13:53:49;;;;;;;2.80;2.07;;;;;;;;;;5086680;28;20443;-70
2023/01/30 13:56:20;;;;;;;4.63;1.70;;;;;;;;;;5088913;28;20971;-71
2023/01/30 13:58:49;;;;;;;8.13;2.37;;;;;;;;;;5089991;28;20445;-70
2023/01/30 14:01:16;;;;;;;2.83;2.17;;;;;;;;;;5096885;28;20480;-71
2023/01/30 14:03:44;;;;;;;2.17;1.83;;;;;;;;;;5099122;28;20446;-72
2023/01/30 14:06:26;;;;;;;3.03;1.23;;;;;;;;;;5102062;28;20462;-72
2023/01/30 14:08:58;;;;;;;4.40;2.50;;;;;;;;;;5100619;28;20441;-71
2023/01/30 14:11:32;;;;;;;2.47;1.50;;;;;;;;;;5099014;28;20471;-72
2023/01/30 14:14:03;;;;;;;3.63;1.40;;;;;;;;;;5088552;28;20437;-72
2023/01/30 14:16:44;;;;;;;4.50;1.70;;;;;;;;;;5085993;28;20468;-71
2023/01/30 14:19:35;;;;;;;2.40;1.43;;;;;;;;;;5094380;28;20574;-71
2023/01/30 14:22:05;;;;;;;1.60;1.03;;;;;;;;;;5069024;28;20450;-73